createdAt,value
2023-04-22T00:01:02.265Z,101026.00
2023-04-22T00:03:29.847Z,101012.81
2023-04-22T00:05:57.707Z,100996.06
2023-04-22T00:08:25.677Z,100990.78
2023-04-22T00:10:52.926Z,100979.34
2023-04-22T00:13:20.400Z,100979.34
2023-04-22T00:15:47.709Z,100986.41
2023-04-22T00:18:15.340Z,100990.81
2023-04-22T00:20:43.869Z,100984.66
2023-04-22T00:23:12.745Z,100991.72
2023-04-22T00:25:40.763Z,100992.59
2023-04-22T00:28:08.198Z,100991.72
2023-04-22T00:30:36.194Z,100989.09
2023-04-22T00:33:03.727Z,100978.50
2023-04-22T00:35:31.241Z,100981.16
2023-04-22T00:37:58.550Z,100976.72
2023-04-22T00:40:25.732Z,100967.06
2023-04-22T00:42:53.192Z,100981.13
2023-04-22T00:45:21.199Z,100974.97
2023-04-22T00:47:49.014Z,100984.63
2023-04-22T00:50:16.809Z,100984.63
2023-04-22T00:52:44.269Z,100979.31
2023-04-22T00:55:12.258Z,100969.63
2023-04-22T00:57:42.776Z,100979.31
2023-04-22T01:00:10.325Z,100984.56
2023-04-22T01:02:38.921Z,100983.69
2023-04-22T01:05:08.464Z,100988.94
2023-04-22T01:07:36.623Z,100977.50
2023-04-22T01:10:04.933Z,100985.44
2023-04-22T01:12:32.208Z,100977.50
2023-04-22T01:14:59.807Z,100966.09
2023-04-22T01:17:28.211Z,100959.97
2023-04-22T01:19:55.788Z,100956.41
2023-04-22T01:22:24.660Z,100952.03
2023-04-22T01:24:52.123Z,100948.50
2023-04-22T01:27:19.810Z,100946.78
2023-04-22T01:29:47.767Z,100945.00
2023-04-22T01:32:15.172Z,100945.88
2023-04-22T01:34:42.431Z,100939.72
2023-04-22T01:37:09.706Z,100942.38
2023-04-22T01:39:37.881Z,100941.47
2023-04-22T01:42:05.791Z,100934.44
2023-04-22T01:44:33.007Z,100922.13
2023-04-22T01:47:00.264Z,100901.91
2023-04-22T01:49:28.159Z,100908.06
2023-04-22T01:51:55.435Z,100917.72
2023-04-22T01:54:22.635Z,100927.41
2023-04-22T01:56:53.211Z,100926.53
2023-04-22T01:59:23.552Z,100924.75
2023-04-22T02:01:50.849Z,100924.78
2023-04-22T02:04:19.121Z,100921.22
2023-04-22T02:06:46.444Z,100919.50
2023-04-22T02:09:13.695Z,100913.31
2023-04-22T02:11:40.874Z,100917.72
2023-04-22T02:14:08.093Z,100915.09
2023-04-22T02:16:35.803Z,100909.81
2023-04-22T02:19:03.059Z,100914.22
2023-04-22T02:21:32.692Z,100910.69
2023-04-22T02:24:00.178Z,100903.66
2023-04-22T02:26:29.242Z,100907.16
2023-04-22T02:28:56.513Z,100904.50
2023-04-22T02:31:23.739Z,100894.84
2023-04-22T02:33:51.017Z,100893.97
2023-04-22T02:36:18.662Z,100897.47
2023-04-22T02:38:46.182Z,100895.69
2023-04-22T02:41:15.498Z,100902.72
2023-04-22T02:43:46.114Z,100906.22
2023-04-22T02:46:16.236Z,100893.91
2023-04-22T02:48:43.698Z,100892.16
2023-04-22T02:51:11.435Z,100887.75
2023-04-22T02:53:38.691Z,100888.63
2023-04-22T02:56:06.441Z,100885.09
2023-04-22T02:58:33.720Z,100882.44
2023-04-22T03:01:01.191Z,100880.69
2023-04-22T03:03:28.613Z,100874.50
2023-04-22T03:05:56.185Z,100877.13
2023-04-22T03:08:25.169Z,100882.34
2023-04-22T03:10:52.682Z,100874.41
2023-04-22T03:13:19.992Z,100880.53
2023-04-22T03:15:47.352Z,100869.09
2023-04-22T03:18:14.764Z,100868.19
2023-04-22T03:20:42.133Z,100868.13
2023-04-22T03:23:09.442Z,100869.88
2023-04-22T03:25:37.810Z,100860.19
2023-04-22T03:28:05.905Z,100855.75
2023-04-22T03:30:33.293Z,100850.47
2023-04-22T03:33:00.629Z,100845.16
2023-04-22T03:35:55.155Z,100842.53
2023-04-22T03:38:23.107Z,100848.66
2023-04-22T03:40:51.904Z,100846.03
2023-04-22T03:43:33.039Z,100842.47
2023-04-22T03:46:05.888Z,100841.59
2023-04-22T03:48:35.811Z,100835.47
2023-04-22T03:51:08.380Z,100838.13
2023-04-22T03:53:37.656Z,100834.63
2023-04-22T03:56:05.983Z,100837.28
2023-04-22T03:58:37.044Z,100831.13
2023-04-22T04:01:08.006Z,100825.84
2023-04-22T04:03:36.022Z,100825.00
2023-04-22T04:06:04.453Z,100825.88
2023-04-22T04:08:31.806Z,100828.50
2023-04-22T04:11:00.146Z,100827.63
2023-04-22T04:13:32.485Z,100820.63
2023-04-22T04:16:17.919Z,100823.28
2023-04-22T04:18:51.785Z,100818.03
2023-04-22T04:21:21.335Z,100821.53
2023-04-22T04:23:51.468Z,100818.91
2023-04-22T04:26:23.957Z,100819.78
2023-04-22T04:28:56.564Z,100818.91
2023-04-22T04:31:25.100Z,100824.16
2023-04-22T04:33:57.289Z,100812.75
2023-04-22T04:36:29.388Z,100810.97
2023-04-22T04:39:04.529Z,100814.50
2023-04-22T04:41:33.306Z,100811.88
2023-04-22T04:44:00.840Z,100816.28
2023-04-22T04:46:34.768Z,100815.41
2023-04-22T04:49:02.673Z,100814.53
2023-04-22T04:51:32.933Z,100812.81
2023-04-22T04:54:01.902Z,100817.19
2023-04-22T04:56:35.508Z,100817.22
2023-04-22T04:59:03.201Z,100815.44
2023-04-22T05:01:30.827Z,100819.84
2023-04-22T05:04:03.772Z,100812.84
2023-04-22T05:06:33.876Z,100812.84
2023-04-22T05:09:04.450Z,100820.72
2023-04-22T05:11:31.761Z,100826.84
2023-04-22T05:14:02.929Z,100818.94
2023-04-22T05:16:34.801Z,100814.56
2023-04-22T05:19:02.456Z,100817.22
2023-04-22T05:21:29.796Z,100817.25
2023-04-22T05:23:57.369Z,100819.88
2023-04-22T05:26:26.015Z,100808.53
2023-04-22T05:28:53.784Z,100813.84
2023-04-22T05:31:22.304Z,100808.59
2023-04-22T05:33:49.900Z,100808.59
2023-04-22T05:36:17.498Z,100819.19
2023-04-22T05:38:47.176Z,100813.03
2023-04-22T05:41:15.914Z,100823.59
2023-04-22T05:43:43.358Z,100817.44
2023-04-22T05:46:15.862Z,100816.56
2023-04-22T05:48:44.795Z,100816.56
2023-04-22T05:51:32.920Z,100814.78
2023-04-22T05:54:00.307Z,100820.97
2023-04-22T05:56:27.886Z,100823.59
2023-04-22T05:58:55.251Z,100822.75
2023-04-22T06:01:24.901Z,100821.00
2023-04-22T06:03:57.807Z,100821.88
2023-04-22T06:06:27.462Z,100823.63
2023-04-22T06:08:54.972Z,100817.47
2023-04-22T06:11:22.217Z,100817.47
2023-04-22T06:13:49.586Z,100806.06
2023-04-22T06:16:17.217Z,100813.09
2023-04-22T06:18:44.527Z,100815.75
2023-04-22T06:21:12.707Z,100809.59
2023-04-22T06:23:40.625Z,100814.88
2023-04-22T06:26:08.161Z,100818.38
2023-04-22T06:28:37.471Z,100816.63
2023-04-22T06:31:18.167Z,100819.28
2023-04-22T06:33:46.767Z,100819.25
2023-04-22T06:36:15.161Z,100822.75
2023-04-22T06:38:44.842Z,100813.97
2023-04-22T06:41:36.152Z,100817.47
2023-04-22T06:44:11.518Z,100816.59
2023-04-22T06:46:58.216Z,100824.50
2023-04-22T06:49:48.356Z,100814.81
2023-04-22T06:52:26.784Z,100813.94
2023-04-22T06:54:57.413Z,100812.13
2023-04-22T06:57:24.749Z,100814.78
2023-04-22T06:59:52.342Z,100819.16
2023-04-22T07:02:19.750Z,100819.13
2023-04-22T07:04:47.079Z,100824.38
2023-04-22T07:07:14.554Z,100820.81
2023-04-22T07:09:42.043Z,100811.13
2023-04-22T07:12:09.696Z,100811.97
2023-04-22T07:14:37.470Z,100812.81
2023-04-22T07:17:04.697Z,100813.66
2023-04-22T07:19:33.263Z,100812.75
2023-04-22T07:22:06.934Z,100812.72
2023-04-22T07:24:36.420Z,100809.22
2023-04-22T07:27:03.715Z,100805.66
2023-04-22T07:29:30.968Z,100808.31
2023-04-22T07:31:58.290Z,100806.53
2023-04-22T07:34:25.458Z,100798.53
2023-04-22T07:36:53.597Z,100796.75
2023-04-22T07:39:22.489Z,100791.41
2023-04-22T07:41:50.874Z,100799.28
2023-04-22T07:44:21.519Z,100791.31
2023-04-22T07:46:49.005Z,100795.66
2023-04-22T07:49:17.270Z,100794.72
2023-04-22T07:51:45.112Z,100792.00
2023-04-22T07:54:12.704Z,100796.34
2023-04-22T07:56:39.980Z,100782.16
2023-04-22T07:59:08.246Z,100783.81
2023-04-22T08:01:35.748Z,100784.56
2023-04-22T08:04:03.243Z,100789.78
2023-04-22T08:06:30.890Z,100783.53
2023-04-22T08:08:58.392Z,100779.00
2023-04-22T08:11:25.691Z,100775.41
2023-04-22T08:13:52.930Z,100776.22
2023-04-22T08:16:20.264Z,100776.13
2023-04-22T08:18:47.621Z,100777.81
2023-04-22T08:21:14.868Z,100771.50
2023-04-22T08:23:42.193Z,100769.66
2023-04-22T08:26:15.062Z,100763.34
2023-04-22T08:28:42.916Z,100758.72
2023-04-22T08:31:12.367Z,100752.47
2023-04-22T08:33:42.818Z,100750.50
2023-04-22T08:36:11.156Z,100752.94
2023-04-22T08:38:38.610Z,100739.44
2023-04-22T08:41:07.187Z,100734.78
2023-04-22T08:43:34.856Z,100741.59
2023-04-22T08:46:02.374Z,100737.88
2023-04-22T08:48:29.683Z,100737.78
2023-04-22T08:50:57.987Z,100740.13
2023-04-22T08:53:25.545Z,100726.44
2023-04-22T08:55:56.400Z,100721.56
2023-04-22T08:58:24.387Z,100722.00
2023-04-22T09:00:52.800Z,100724.28
2023-04-22T09:03:31.260Z,100723.94
2023-04-22T09:06:00.644Z,100717.41
2023-04-22T09:08:29.545Z,100718.06
2023-04-22T09:10:58.057Z,100722.31
2023-04-22T09:13:26.916Z,100730.97
2023-04-22T09:15:54.176Z,100728.22
2023-04-22T09:18:21.532Z,100729.91
2023-04-22T09:20:49.784Z,100726.25
2023-04-22T09:23:17.032Z,100732.38
2023-04-22T09:25:46.358Z,100723.44
2023-04-22T09:28:18.883Z,100711.75
2023-04-22T09:30:46.694Z,100717.75
2023-04-22T09:33:14.809Z,100714.91
2023-04-22T09:35:43.481Z,100722.66
2023-04-22T09:38:12.814Z,100725.91
2023-04-22T09:40:44.459Z,100719.44
2023-04-22T09:43:12.100Z,100717.50
2023-04-22T09:45:43.203Z,100711.19
2023-04-22T09:48:13.062Z,100708.41
2023-04-22T09:50:47.346Z,100702.91
2023-04-22T09:53:17.166Z,100696.53
2023-04-22T09:55:50.247Z,100698.78
2023-04-22T09:58:20.476Z,100702.28
2023-04-22T10:00:51.050Z,100690.47
2023-04-22T10:03:19.709Z,100687.59
2023-04-22T10:05:47.655Z,100694.38
2023-04-22T10:08:16.355Z,100695.03
2023-04-22T10:10:44.781Z,100700.28
2023-04-22T10:13:12.482Z,100701.09
2023-04-22T10:15:58.881Z,100691.25
2023-04-22T10:18:28.240Z,100685.78
2023-04-22T10:20:58.351Z,100680.16
2023-04-22T10:23:26.187Z,100666.69
2023-04-22T10:25:54.985Z,100674.44
2023-04-22T10:28:24.342Z,100650.84
2023-04-22T10:30:51.970Z,100649.44
2023-04-22T10:33:27.482Z,100645.53
2023-04-22T10:36:08.647Z,100641.50
2023-04-22T10:38:42.214Z,100641.94
2023-04-22T10:41:16.573Z,100647.78
2023-04-22T10:43:48.948Z,100655.53
2023-04-22T10:46:38.079Z,100646.41
2023-04-22T10:49:17.958Z,100639.97
2023-04-22T10:51:47.421Z,100647.66
2023-04-22T10:54:36.627Z,100637.84
2023-04-22T10:57:19.304Z,100632.38
2023-04-22T10:59:47.228Z,100633.81
2023-04-22T11:02:16.830Z,100629.72
2023-04-22T11:04:44.373Z,100629.31
2023-04-22T11:07:22.779Z,100627.31
2023-04-22T11:09:52.842Z,100623.69
2023-04-22T11:12:38.814Z,100627.19
2023-04-22T11:15:06.854Z,100621.84
2023-04-22T11:17:36.243Z,100618.84
2023-04-22T11:20:05.762Z,100615.25
2023-04-22T11:22:37.794Z,100612.19
2023-04-22T11:25:06.743Z,100597.53
2023-04-22T11:27:36.245Z,100604.53
2023-04-22T11:30:25.652Z,100587.34
2023-04-22T11:32:57.394Z,100593.38
2023-04-22T11:35:33.608Z,100597.88
2023-04-22T11:38:03.418Z,100595.94
2023-04-22T11:40:42.217Z,100586.78
2023-04-22T11:43:12.699Z,100586.31
2023-04-22T11:45:40.518Z,100584.91
2023-04-22T11:48:09.112Z,100589.00
2023-04-22T11:50:38.905Z,100576.59
2023-04-22T11:53:26.372Z,100581.75
2023-04-22T11:55:53.646Z,100580.06
2023-04-22T11:58:27.341Z,100576.41
2023-04-22T12:00:58.800Z,100568.28
2023-04-22T12:03:30.385Z,100570.81
2023-04-22T12:06:00.559Z,100564.25
2023-04-22T12:08:33.755Z,100549.84
2023-04-22T12:11:04.423Z,100558.09
2023-04-22T12:13:41.577Z,100552.06
2023-04-22T12:16:19.265Z,100557.31
2023-04-22T12:18:54.681Z,100562.25
2023-04-22T12:21:24.955Z,100558.94
2023-04-22T12:23:55.306Z,100561.47
2023-04-22T12:26:26.893Z,100569.72
2023-04-22T12:28:58.152Z,100572.81
2023-04-22T12:31:27.104Z,100564.25
2023-04-22T12:33:55.164Z,100567.94
2023-04-22T12:36:23.405Z,100570.75
2023-04-22T12:38:51.600Z,100564.78
2023-04-22T12:41:18.929Z,100557.03
2023-04-22T12:43:46.626Z,100557.44
2023-04-22T12:46:14.020Z,100557.50
2023-04-22T12:48:42.884Z,100559.31
2023-04-22T12:51:10.433Z,100548.94
2023-04-22T12:53:37.998Z,100546.56
2023-04-22T12:56:05.800Z,100545.06
2023-04-22T12:58:33.295Z,100537.34
2023-04-22T13:01:00.781Z,100531.19
2023-04-22T13:03:28.830Z,100516.72
2023-04-22T13:05:56.372Z,100520.59
2023-04-22T13:08:23.585Z,100511.38
2023-04-22T13:10:53.545Z,100512.25
2023-04-22T13:13:20.909Z,100508.00
2023-04-22T13:15:54.212Z,100500.28
2023-04-22T13:18:23.347Z,100506.81
2023-04-22T13:20:51.571Z,100498.06
2023-04-22T13:23:21.621Z,100497.03
2023-04-22T13:25:49.659Z,100498.94
2023-04-22T13:28:16.818Z,100503.50
2023-04-22T13:30:45.369Z,100499.25
2023-04-22T13:33:12.945Z,100496.78
2023-04-22T13:35:40.882Z,100497.97
2023-04-22T13:38:08.302Z,100491.94
2023-04-22T13:40:35.984Z,100490.19
2023-04-22T13:43:03.453Z,100485.34
2023-04-22T13:45:30.926Z,100469.75
2023-04-22T13:47:58.281Z,100465.41
2023-04-22T13:50:25.625Z,100459.16
2023-04-22T13:52:53.084Z,100460.84
2023-04-22T13:55:20.630Z,100463.44
2023-04-22T13:57:48.009Z,100465.34
2023-04-22T14:00:15.379Z,100458.69
2023-04-22T14:02:42.721Z,100457.53
2023-04-22T14:05:10.906Z,100451.00
2023-04-22T14:07:38.398Z,100445.22
2023-04-22T14:10:08.418Z,100435.00
2023-04-22T14:12:37.123Z,100443.31
2023-04-22T14:15:04.832Z,100442.91
2023-04-22T14:17:32.696Z,100438.94
2023-04-22T14:19:59.966Z,100423.53
2023-04-22T14:22:27.189Z,100416.84
2023-04-22T14:24:54.451Z,100409.22
2023-04-22T14:27:21.609Z,100415.91
2023-04-22T14:29:53.051Z,100416.31
2023-04-22T14:32:20.932Z,100411.44
2023-04-22T14:34:48.828Z,100401.13
2023-04-22T14:37:16.065Z,100395.31
2023-04-22T14:39:43.354Z,100390.50
2023-04-22T14:42:11.000Z,100392.75
2023-04-22T14:44:40.515Z,100399.44
2023-04-22T14:47:10.351Z,100403.44
2023-04-22T14:49:37.899Z,100418.16
2023-04-22T14:52:06.882Z,100432.84
2023-04-22T14:54:34.386Z,100443.31
2023-04-22T14:57:01.789Z,100447.84
2023-04-22T14:59:29.158Z,100423.94
2023-04-22T15:01:56.568Z,100438.22
2023-04-22T15:04:24.458Z,100426.63
2023-04-22T15:06:53.268Z,100426.28
2023-04-22T15:09:20.694Z,100420.34
2023-04-22T15:11:47.927Z,100432.00
2023-04-22T15:14:17.153Z,100426.84
2023-04-22T15:16:44.600Z,100421.69
2023-04-22T15:19:11.921Z,100422.59
2023-04-22T15:21:39.251Z,100419.13
2023-04-22T15:24:06.650Z,100418.25
2023-04-22T15:26:34.134Z,100420.97
2023-04-22T15:29:01.503Z,100415.63
2023-04-22T15:31:28.956Z,100421.94
2023-04-22T15:33:56.439Z,100425.63
2023-04-22T15:36:23.712Z,100425.06
2023-04-22T15:38:56.470Z,100428.19
2023-04-22T15:41:24.603Z,100434.69
2023-04-22T15:43:53.560Z,100442.19
2023-04-22T15:46:22.035Z,100461.91
2023-04-22T15:48:49.466Z,100456.31
2023-04-22T15:51:18.132Z,100454.41
2023-04-22T15:53:46.399Z,100445.59
2023-04-22T15:56:14.416Z,100463.94
2023-04-22T15:58:41.792Z,100468.88
2023-04-22T16:01:19.017Z,100472.91
2023-04-22T16:03:50.381Z,100477.84
2023-04-22T16:06:19.030Z,100471.84
2023-04-22T16:08:46.543Z,100486.25
2023-04-22T16:11:15.222Z,100487.28
2023-04-22T16:13:42.784Z,100474.22
2023-04-22T16:16:10.358Z,100485.06
2023-04-22T16:18:38.289Z,100498.44
2023-04-22T16:21:05.690Z,100498.47
2023-04-22T16:23:34.525Z,100493.22
2023-04-22T16:26:02.904Z,100489.75
2023-04-22T16:28:30.703Z,100496.91
2023-04-22T16:30:57.944Z,100505.81
2023-04-22T16:33:25.629Z,100515.50
2023-04-22T16:35:52.869Z,100525.28
2023-04-22T16:38:20.079Z,100538.56
2023-04-22T16:40:47.460Z,100536.84
2023-04-22T16:43:14.755Z,100528.91
2023-04-22T16:45:42.138Z,100525.47
2023-04-22T16:48:09.308Z,100528.22
2023-04-22T16:50:38.814Z,100526.53
2023-04-22T16:53:07.849Z,100529.28
2023-04-22T16:55:36.983Z,100523.19
2023-04-22T16:58:04.586Z,100522.34
2023-04-22T17:00:31.836Z,100522.38
2023-04-22T17:02:59.197Z,100526.91
2023-04-22T17:05:26.667Z,100530.53
2023-04-22T17:07:53.917Z,100534.06
2023-04-22T17:10:21.128Z,100546.47
2023-04-22T17:12:48.415Z,100546.50
2023-04-22T17:15:15.852Z,100543.91
2023-04-22T17:17:43.176Z,100553.69
2023-04-22T17:20:11.139Z,100545.00
2023-04-22T17:22:38.353Z,100542.47
2023-04-22T17:25:07.599Z,100535.44
2023-04-22T17:27:34.923Z,100530.13
2023-04-22T17:30:02.118Z,100528.41
2023-04-22T17:32:29.431Z,100527.59
2023-04-22T17:34:56.761Z,100528.53
2023-04-22T17:37:24.038Z,100529.41
2023-04-22T17:39:51.421Z,100524.13
2023-04-22T17:42:19.030Z,100522.44
2023-04-22T17:44:46.659Z,100529.53
2023-04-22T17:47:14.062Z,100534.84
2023-04-22T17:49:41.864Z,100533.16
2023-04-22T17:52:09.357Z,100536.72
2023-04-22T17:54:36.550Z,100532.31
2023-04-22T17:57:04.085Z,100531.44
2023-04-22T17:59:31.295Z,100532.31
2023-04-22T18:01:59.575Z,100544.69
2023-04-22T18:04:27.507Z,100545.63
2023-04-22T18:06:54.760Z,100559.81
2023-04-22T18:09:21.957Z,100554.72
2023-04-22T18:11:49.575Z,100564.72
2023-04-22T18:14:17.022Z,100567.56
2023-04-22T18:16:44.249Z,100578.25
2023-04-22T18:19:11.627Z,100573.09
2023-04-22T18:21:46.587Z,100575.00
2023-04-22T18:24:20.288Z,100584.81
2023-04-22T18:26:48.794Z,100584.94
2023-04-22T18:29:16.191Z,100583.25
2023-04-22T18:31:43.535Z,100593.88
2023-04-22T18:34:13.316Z,100609.75
2023-04-22T18:36:40.697Z,100610.66
2023-04-22T18:39:09.509Z,100608.94
2023-04-22T18:41:38.754Z,100610.72
2023-04-22T18:44:06.416Z,100610.75
2023-04-22T18:46:33.680Z,100616.88
2023-04-22T18:49:01.023Z,100624.81
2023-04-22T18:51:29.877Z,100621.34
2023-04-22T18:53:57.216Z,100623.97
2023-04-22T18:56:25.014Z,100623.97
2023-04-22T18:58:52.244Z,100625.78
2023-04-22T19:01:19.539Z,100628.41
2023-04-22T19:03:47.010Z,100627.56
2023-04-22T19:06:14.432Z,100617.94
2023-04-22T19:08:41.666Z,100628.50
2023-04-22T19:11:08.986Z,100625.00
2023-04-22T19:13:36.182Z,100634.69
2023-04-22T19:16:03.514Z,100638.19
2023-04-22T19:18:30.861Z,100652.25
2023-04-22T19:20:58.083Z,100653.16
2023-04-22T19:23:25.485Z,100646.13
2023-04-22T19:25:53.167Z,100652.25
2023-04-22T19:28:20.386Z,100648.75
2023-04-22T19:30:48.274Z,100651.38
2023-04-22T19:33:15.893Z,100654.06
2023-04-22T19:35:43.200Z,100640.88
2023-04-22T19:38:11.238Z,100642.59
2023-04-22T19:40:38.577Z,100652.28
2023-04-22T19:43:06.033Z,100654.06
2023-04-22T19:45:33.336Z,100653.16
2023-04-22T19:48:01.019Z,100657.56
2023-04-22T19:50:28.455Z,100653.16
2023-04-22T19:53:03.625Z,100660.19
2023-04-22T19:55:33.701Z,100656.66
2023-04-22T19:58:01.081Z,100659.31
2023-04-22T20:00:28.879Z,100675.13
2023-04-22T20:02:56.842Z,100675.13
2023-04-22T20:05:25.569Z,100676.88
2023-04-22T20:07:57.944Z,100683.03
2023-04-22T20:10:26.443Z,100679.50
2023-04-22T20:12:54.404Z,100675.09
2023-04-22T20:15:21.901Z,100671.59
2023-04-22T20:17:49.703Z,100678.59
2023-04-22T20:20:17.668Z,100678.63
2023-04-22T20:22:46.390Z,100682.94
2023-04-22T20:25:15.772Z,100687.31
2023-04-22T20:27:43.802Z,100677.66
2023-04-22T20:30:13.583Z,100689.06
2023-04-22T20:32:42.285Z,100682.94
2023-04-22T20:35:15.130Z,100669.78
2023-04-22T20:37:44.626Z,100677.66
2023-04-22T20:40:14.845Z,100673.25
2023-04-22T20:42:42.240Z,100682.91
2023-04-22T20:45:14.931Z,100673.28
2023-04-22T20:47:42.960Z,100690.81
2023-04-22T20:50:11.028Z,100691.69
2023-04-22T20:52:39.043Z,100692.56
2023-04-22T20:55:06.838Z,100696.94
2023-04-22T20:57:34.093Z,100699.56
2023-04-22T21:00:01.590Z,100696.03
2023-04-22T21:02:29.785Z,100693.41
2023-04-22T21:04:57.710Z,100690.78
2023-04-22T21:07:26.535Z,100675.84
2023-04-22T21:09:53.992Z,100681.16
2023-04-22T21:12:21.592Z,100686.41
2023-04-22T21:14:49.420Z,100687.31
2023-04-22T21:17:22.688Z,100688.19
2023-04-22T21:19:51.427Z,100693.47
2023-04-22T21:22:21.599Z,100697.00
2023-04-22T21:24:50.054Z,100698.75
2023-04-22T21:27:18.540Z,100699.59
2023-04-22T21:29:49.460Z,100701.38
2023-04-22T21:32:17.546Z,100697.84
2023-04-22T21:34:45.297Z,100704.00
2023-04-22T21:37:13.849Z,100698.72
2023-04-22T21:39:41.183Z,100698.69
2023-04-22T21:42:08.984Z,100704.00
2023-04-22T21:44:37.418Z,100709.22
2023-04-22T21:47:05.970Z,100702.19
2023-04-22T21:49:33.275Z,100711.84
2023-04-22T21:52:01.097Z,100711.00
2023-04-22T21:54:28.418Z,100715.34
2023-04-22T21:56:56.223Z,100707.47
2023-04-22T21:59:24.844Z,100705.69
2023-04-22T22:01:52.452Z,100709.22
2023-04-22T22:04:19.775Z,100717.97
2023-04-22T22:06:47.167Z,100728.50
2023-04-22T22:09:14.604Z,100722.31
2023-04-22T22:11:42.088Z,100722.28
2023-04-22T22:14:09.434Z,100727.50
2023-04-22T22:16:38.409Z,100728.34
2023-04-22T22:19:08.470Z,100731.78
2023-04-22T22:21:36.183Z,100736.13
2023-04-22T22:24:03.833Z,100740.50
2023-04-22T22:26:31.102Z,100741.31
2023-04-22T22:28:58.404Z,100747.41
2023-04-22T22:31:25.738Z,100752.63
2023-04-22T22:33:53.002Z,100749.97
2023-04-22T22:36:20.341Z,100741.19
2023-04-22T22:38:47.624Z,100748.16
2023-04-22T22:41:14.887Z,100750.72
2023-04-22T22:43:42.582Z,100748.94
2023-04-22T22:46:09.829Z,100748.03
2023-04-22T22:48:37.304Z,100748.00
2023-04-22T22:51:04.612Z,100744.50
2023-04-22T22:53:34.319Z,100750.63
2023-04-22T22:56:01.612Z,100745.31
2023-04-22T22:58:28.848Z,100756.66
2023-04-22T23:00:56.257Z,100758.38
2023-04-22T23:03:23.736Z,100759.22
2023-04-22T23:05:51.129Z,100761.78
2023-04-22T23:08:18.451Z,100760.00
2023-04-22T23:10:45.810Z,100757.34
2023-04-22T23:13:13.329Z,100759.06
2023-04-22T23:15:40.933Z,100768.66
2023-04-22T23:18:09.232Z,100763.34
2023-04-22T23:20:37.598Z,100766.78
2023-04-22T23:23:04.973Z,100765.84
2023-04-22T23:25:32.512Z,100769.34
2023-04-22T23:28:00.678Z,100760.53
2023-04-22T23:30:28.203Z,100765.81
2023-04-22T23:32:57.557Z,100766.66
2023-04-22T23:35:27.383Z,100765.78
2023-04-22T23:37:56.734Z,100760.53
2023-04-22T23:40:23.929Z,100760.53
2023-04-22T23:42:51.178Z,100757.03
2023-04-22T23:45:18.362Z,100754.41
2023-04-22T23:47:45.640Z,100757.03
2023-04-22T23:50:14.173Z,100756.16
2023-04-22T23:52:42.914Z,100748.31
2023-04-22T23:55:11.621Z,100747.44
2023-04-22T23:57:39.335Z,100742.13
